Terminal Aerodrome Forecast
Issued by NWS Albany, NY

Home | Current Version | Previous Version | Text Only | Print | Product List | Glossary On
Versions: 1 2 3 4 5 6 7 8 9 10 11 12 13 14 15 16 17 18 19 20 21 22
000
FTUS41 KALY 211300 AAA
TAFALB
TAF AMD
KALB 211324Z 2113/2212 13005KT P6SM VCSH SCT020 OVC040
      TEMPO 2113/2114 6SM BR OVC030
     FM211400 14005KT P6SM VCSH OVC035
     FM211600 15005KT P6SM VCSH SCT030 BKN050
     FM212100 15008KT 4SM -SHRA BR SCT025 OVC040
     FM220500 14005KT 5SM -SHRA BR SCT010 OVC025=

USA.gov is the U.S. government's official web portal to all federal, state and local government web resources and services.